Time;durP1;ratioP1;P1;durP2;ratioP2;P2;SDS_P1;SDS_P2;PMS_P1;PMS_P2;Temp;Humidity;BMP_temperature;BMP_pressure;BME280_temperature;BME280_humidity;BME280_pressure;Samples;Min_cycle;Max_cycle;Signal;HPM_P1;HPM_P2
2022/05/27 00:00:12;;;;;;;17.92;4.85;;;15.50;99.90;;;;;;5001394;28;20208;-64
2022/05/27 00:02:39;;;;;;;14.23;4.45;;;15.40;99.90;;;;;;4989844;28;20221;-64
2022/05/27 00:05:07;;;;;;;13.88;4.15;;;15.40;99.90;;;;;;4998363;28;20202;-64
2022/05/27 00:07:34;;;;;;;8.00;3.90;;;15.40;99.90;;;;;;4994637;28;20223;-65
2022/05/27 00:10:00;;;;;;;14.35;4.60;;;15.40;99.90;;;;;;5008045;28;20214;-64
2022/05/27 00:12:27;;;;;;;9.25;4.65;;;15.20;99.90;;;;;;4996895;28;20206;-65
2022/05/27 00:14:54;;;;;;;15.02;4.55;;;15.40;99.90;;;;;;4980905;28;20715;-65
2022/05/27 00:17:22;;;;;;;12.52;4.75;;;15.40;99.90;;;;;;4994814;28;20226;-64
2022/05/27 00:19:49;;;;;;;11.68;5.85;;;15.40;99.90;;;;;;5003433;28;20206;-65
2022/05/27 00:22:17;;;;;;;9.82;3.90;;;15.30;99.90;;;;;;4992589;28;20198;-64
2022/05/27 00:24:44;;;;;;;9.63;4.40;;;15.30;99.90;;;;;;5008811;28;20766;-64
2022/05/27 00:27:11;;;;;;;18.73;5.40;;;15.30;99.90;;;;;;5004460;28;20237;-64
2022/05/27 00:29:38;;;;;;;14.02;3.97;;;15.30;99.90;;;;;;4981252;28;20209;-64
2022/05/27 00:32:06;;;;;;;21.17;5.00;;;15.30;99.90;;;;;;4978951;28;20202;-64
2022/05/27 00:34:35;;;;;;;17.48;4.65;;;15.30;99.90;;;;;;5007880;28;20611;-64
2022/05/27 00:37:04;;;;;;;18.77;3.95;;;15.20;99.90;;;;;;4984422;28;20206;-64
2022/05/27 00:39:31;;;;;;;19.40;4.65;;;15.60;99.90;;;;;;5008668;28;20199;-65
2022/05/27 00:41:58;;;;;;;14.05;4.40;;;15.40;99.90;;;;;;5007966;28;20202;-64
2022/05/27 00:44:25;;;;;;;11.20;4.65;;;15.20;99.90;;;;;;4981929;28;20210;-64
2022/05/27 00:46:53;;;;;;;12.23;4.75;;;15.20;99.90;;;;;;5012299;28;20222;-64
2022/05/27 00:49:25;;;;;;;13.80;4.90;;;15.20;99.90;;;;;;4997913;28;20206;-64
2022/05/27 00:52:02;;;;;;;16.33;4.47;;;15.10;99.90;;;;;;4997886;28;20198;-64
2022/05/27 00:54:29;;;;;;;9.40;3.65;;;15.10;99.90;;;;;;4995807;28;20555;-65
2022/05/27 00:56:59;;;;;;;14.02;3.58;;;14.90;99.90;;;;;;5008284;28;20198;-64
2022/05/27 00:59:31;;;;;;;16.05;4.00;;;14.60;99.90;;;;;;4981604;28;20835;-64
2022/05/27 01:01:59;;;;;;;16.58;3.90;;;14.80;99.90;;;;;;5003237;28;20202;-64
2022/05/27 01:04:28;;;;;;;11.70;3.50;;;14.70;99.90;;;;;;4997287;28;20206;-64
2022/05/27 01:06:56;;;;;;;9.07;2.67;;;14.70;99.90;;;;;;4996851;28;20241;-64
2022/05/27 01:09:24;;;;;;;15.85;3.40;;;14.70;99.90;;;;;;4990589;28;20206;-64
2022/05/27 01:12:15;;;;;;;12.75;3.35;;;14.60;99.90;;;;;;5008518;28;20198;-64
2022/05/27 01:14:56;;;;;;;14.73;4.13;;;14.40;99.90;;;;;;4988128;28;20217;-64
2022/05/27 01:17:32;;;;;;;11.38;2.90;;;14.50;99.90;;;;;;5004762;28;20215;-64
2022/05/27 01:20:18;;;;;;;7.60;3.13;;;14.50;99.90;;;;;;5000203;28;20229;-64
2022/05/27 01:22:58;;;;;;;8.45;2.65;;;14.50;99.90;;;;;;5002033;28;20202;-63
2022/05/27 01:26:06;;;;;;;11.38;2.83;;;14.40;99.90;;;;;;4995511;28;20221;-64
2022/05/27 01:28:45;;;;;;;12.32;2.80;;;14.40;99.90;;;;;;5003552;28;20210;-64
2022/05/27 01:31:27;;;;;;;11.82;3.00;;;14.40;99.90;;;;;;4986402;28;20254;-64
2022/05/27 01:34:04;;;;;;;11.77;2.67;;;14.10;99.90;;;;;;4990195;28;20216;-64
2022/05/27 01:36:41;;;;;;;7.32;3.05;;;14.30;99.90;;;;;;5014051;28;20213;-64
2022/05/27 01:39:17;;;;;;;11.68;2.58;;;14.40;99.90;;;;;;4990828;28;20202;-63
2022/05/27 01:41:52;;;;;;;9.50;2.78;;;14.20;99.90;;;;;;4991445;28;20237;-63
2022/05/27 01:44:25;;;;;;;9.90;2.63;;;14.10;99.90;;;;;;5002551;28;20190;-63
2022/05/27 01:46:53;;;;;;;11.63;2.60;;;14.00;99.90;;;;;;4992214;28;20218;-63
2022/05/27 01:49:32;;;;;;;10.23;2.90;;;13.90;99.90;;;;;;5004629;28;20208;-64
2022/05/27 01:52:03;;;;;;;7.97;2.00;;;13.90;99.90;;;;;;5013518;28;20664;-63
2022/05/27 01:54:40;;;;;;;9.02;2.00;;;13.60;99.90;;;;;;4993139;28;20205;-64
2022/05/27 01:57:13;;;;;;;8.23;2.50;;;13.80;99.90;;;;;;5003035;28;20206;-63
2022/05/27 01:59:52;;;;;;;8.18;1.95;;;13.70;99.90;;;;;;5005316;28;20203;-63
2022/05/27 02:02:23;;;;;;;12.68;2.35;;;13.60;99.90;;;;;;4988480;28;20266;-64
2022/05/27 02:04:57;;;;;;;7.60;2.13;;;13.50;99.90;;;;;;5012294;28;20194;-64
2022/05/27 02:07:29;;;;;;;8.43;2.05;;;13.40;99.90;;;;;;4989968;28;20229;-64
2022/05/27 02:10:01;;;;;;;8.50;2.47;;;13.40;99.90;;;;;;4999068;28;20229;-63
2022/05/27 02:12:31;;;;;;;9.68;2.58;;;13.40;99.90;;;;;;5000236;28;20198;-63
2022/05/27 02:15:02;;;;;;;11.95;2.70;;;13.40;99.90;;;;;;5013709;28;20207;-63
2022/05/27 02:17:35;;;;;;;9.45;2.30;;;13.30;99.90;;;;;;4992029;28;20225;-64
2022/05/27 02:20:08;;;;;;;7.75;2.13;;;13.20;99.90;;;;;;5011261;28;20204;-64
2022/05/27 02:22:39;;;;;;;5.80;2.30;;;13.50;99.90;;;;;;5005391;28;20785;-62
2022/05/27 02:25:10;;;;;;;7.35;2.10;;;13.30;99.90;;;;;;4995663;28;20672;-61
2022/05/27 02:27:42;;;;;;;4.93;1.73;;;13.20;99.90;;;;;;4997109;28;20547;-61
2022/05/27 02:30:13;;;;;;;11.20;2.25;;;13.20;99.90;;;;;;5011613;28;20214;-61
2022/05/27 02:32:47;;;;;;;13.90;2.75;;;13.10;99.90;;;;;;4990354;28;20794;-62
2022/05/27 02:35:17;;;;;;;10.98;2.42;;;13.10;99.90;;;;;;5012664;28;20198;-61
2022/05/27 02:37:47;;;;;;;5.55;1.63;;;13.20;99.90;;;;;;4999704;28;20668;-61
2022/05/27 02:40:17;;;;;;;4.75;1.50;;;13.20;99.90;;;;;;4994029;28;20212;-62
2022/05/27 02:42:54;;;;;;;6.40;2.05;;;13.20;99.90;;;;;;5012210;28;20206;-61
2022/05/27 02:45:30;;;;;;;9.27;2.30;;;13.20;99.90;;;;;;4998939;28;20796;-63
2022/05/27 02:48:09;;;;;;;10.65;2.25;;;13.20;99.90;;;;;;5015615;28;20226;-63
2022/05/27 02:50:42;;;;;;;6.72;1.73;;;13.10;99.90;;;;;;4999311;28;20237;-62
2022/05/27 02:53:20;;;;;;;7.05;2.42;;;13.10;99.90;;;;;;5003677;28;20218;-63
2022/05/27 02:55:58;;;;;;;11.27;2.67;;;13.10;99.90;;;;;;4997532;28;20711;-63
2022/05/27 02:58:25;;;;;;;8.52;2.22;;;13.80;99.90;;;;;;5000605;28;20206;-62
2022/05/27 03:00:52;;;;;;;7.25;1.73;;;13.20;99.90;;;;;;5006204;28;20221;-62
2022/05/27 03:03:20;;;;;;;4.93;1.88;;;13.90;99.90;;;;;;4999693;28;20590;-63
2022/05/27 03:06:02;;;;;;;9.80;2.30;;;13.00;99.90;;;;;;5006625;28;20203;-63
2022/05/27 03:08:34;;;;;;;12.27;2.22;;;13.10;99.90;;;;;;4999966;28;20223;-63
2022/05/27 03:11:09;;;;;;;11.65;2.00;;;11.30;99.90;;;;;;4996192;28;20229;-62
2022/05/27 03:14:02;;;;;;;9.18;2.38;;;12.90;99.90;;;;;;5008486;28;20208;-62
2022/05/27 03:16:37;;;;;;;6.20;2.47;;;12.70;99.90;;;;;;4996148;28;20441;-63
2022/05/27 03:19:31;;;;;;;13.60;2.00;;;12.90;99.90;;;;;;4996767;28;20217;-63
2022/05/27 03:22:12;;;;;;;7.57;1.83;;;12.80;99.90;;;;;;5012992;28;20221;-62
2022/05/27 03:24:51;;;;;;;10.95;1.95;;;12.80;99.90;;;;;;4999649;28;20202;-63
2022/05/27 03:27:24;;;;;;;8.20;2.30;;;12.80;99.90;;;;;;4993021;28;20225;-62
2022/05/27 03:29:55;;;;;;;7.43;2.00;;;12.80;99.90;;;;;;5008687;28;20198;-62
2022/05/27 03:32:29;;;;;;;8.07;2.63;;;12.80;99.90;;;;;;4994769;28;21086;-63
2022/05/27 03:35:08;;;;;;;4.68;2.08;;;12.80;99.90;;;;;;4998798;28;20214;-62
2022/05/27 03:37:39;;;;;;;8.57;1.83;;;12.90;99.90;;;;;;5009668;28;20199;-62
2022/05/27 03:40:11;;;;;;;13.25;2.30;;;12.60;99.90;;;;;;5001450;28;20269;-62
2022/05/27 03:42:40;;;;;;;10.40;2.00;;;12.70;99.90;;;;;;5003945;28;20629;-62
2022/05/27 03:45:10;;;;;;;3.92;1.50;;;12.60;99.90;;;;;;5009486;28;21004;-62
2022/05/27 03:47:38;;;;;;;10.95;1.67;;;12.70;99.90;;;;;;4996122;28;21124;-63
2022/05/27 03:50:10;;;;;;;4.47;1.80;;;11.30;99.90;;;;;;5007585;28;20212;-61
2022/05/27 03:52:40;;;;;;;2.75;1.88;;;12.50;99.90;;;;;;5000776;28;20209;-62
2022/05/27 03:55:09;;;;;;;8.68;1.50;;;12.60;99.90;;;;;;5008095;28;20249;-62
2022/05/27 03:57:36;;;;;;;4.45;2.03;;;12.40;99.90;;;;;;5001908;28;20199;-62
2022/05/27 04:00:03;;;;;;;10.07;1.90;;;12.30;99.90;;;;;;5007835;28;20205;-62
2022/05/27 04:02:30;;;;;;;9.45;2.10;;;12.30;99.90;;;;;;4996280;28;20206;-62
2022/05/27 04:04:57;;;;;;;6.88;2.17;;;12.30;99.90;;;;;;5003354;28;20208;-62
2022/05/27 04:07:25;;;;;;;6.70;2.17;;;12.40;99.90;;;;;;4986246;28;20237;-62
2022/05/27 04:09:52;;;;;;;11.40;1.73;;;12.20;99.90;;;;;;4999640;28;20222;-62
2022/05/27 04:12:20;;;;;;;7.35;1.90;;;12.50;99.90;;;;;;4997867;28;20198;-62
2022/05/27 04:14:50;;;;;;;9.13;1.63;;;12.20;99.90;;;;;;5010478;28;20221;-62
2022/05/27 04:17:30;;;;;;;9.50;1.80;;;12.10;99.90;;;;;;5001909;28;20225;-62
2022/05/27 04:19:57;;;;;;;5.18;1.30;;;12.10;99.90;;;;;;5007051;28;20206;-62
2022/05/27 04:22:26;;;;;;;5.15;2.28;;;12.10;99.90;;;;;;4988941;28;20209;-62
2022/05/27 04:24:53;;;;;;;5.28;1.48;;;12.10;99.90;;;;;;4997274;28;20194;-62
2022/05/27 04:27:21;;;;;;;8.63;2.22;;;12.10;99.90;;;;;;5005213;28;20226;-62
2022/05/27 04:29:52;;;;;;;3.63;1.55;;;12.30;99.90;;;;;;4998637;28;20582;-63
2022/05/27 04:32:20;;;;;;;7.75;2.10;;;12.20;99.90;;;;;;5001265;28;20770;-63
2022/05/27 04:34:47;;;;;;;6.70;1.90;;;12.30;99.90;;;;;;4997891;28;20210;-62
2022/05/27 04:37:14;;;;;;;3.85;1.45;;;12.20;99.90;;;;;;4991085;28;20210;-62
2022/05/27 04:39:43;;;;;;;10.23;1.92;;;11.80;99.90;;;;;;5002241;28;20202;-62
2022/05/27 04:42:10;;;;;;;6.13;1.35;;;12.70;99.90;;;;;;5002992;28;20724;-62
2022/05/27 04:44:37;;;;;;;9.13;1.98;;;12.20;99.90;;;;;;5002413;28;20206;-62
2022/05/27 04:47:05;;;;;;;8.52;1.98;;;12.20;99.90;;;;;;4997959;28;20256;-62
2022/05/27 04:52:17;;;;;;;13.23;1.98;;;12.50;99.90;;;;;;4977600;28;20904;-62
2022/05/27 04:54:45;;;;;;;7.13;1.80;;;12.40;99.90;;;;;;5010973;28;20234;-62
2022/05/27 04:57:16;;;;;;;5.72;1.65;;;12.20;99.90;;;;;;4989048;28;20217;-62
2022/05/27 04:59:46;;;;;;;6.10;1.75;;;11.90;99.90;;;;;;5002469;28;20206;-62
2022/05/27 05:02:13;;;;;;;3.58;1.38;;;12.50;99.90;;;;;;4997326;28;20308;-62
2022/05/27 05:04:40;;;;;;;5.25;1.30;;;12.50;99.90;;;;;;5009560;28;20201;-62
2022/05/27 05:07:09;;;;;;;5.40;1.55;;;12.50;99.90;;;;;;4997564;28;20212;-62
2022/05/27 05:09:37;;;;;;;7.65;1.83;;;12.50;99.90;;;;;;5000730;28;20213;-62
2022/05/27 05:12:07;;;;;;;6.65;1.80;;;12.60;99.90;;;;;;5002695;28;20198;-62
2022/05/27 05:14:34;;;;;;;7.10;1.40;;;12.80;99.90;;;;;;5015657;28;20201;-62
2022/05/27 05:17:01;;;;;;;4.72;1.63;;;12.60;99.90;;;;;;5006235;28;20751;-62
2022/05/27 05:19:28;;;;;;;8.98;2.45;;;12.70;99.90;;;;;;5003847;28;20209;-62
2022/05/27 05:21:56;;;;;;;11.35;2.50;;;12.70;99.90;;;;;;5001044;28;20213;-62
2022/05/27 05:24:23;;;;;;;4.82;1.70;;;12.80;99.90;;;;;;4997641;28;24723;-62
2022/05/27 05:26:50;;;;;;;7.22;2.10;;;12.80;99.90;;;;;;5005056;28;20306;-61
2022/05/27 05:29:18;;;;;;;5.85;1.63;;;12.80;99.90;;;;;;5007702;28;20249;-62
2022/05/27 05:31:45;;;;;;;3.28;1.15;;;;;;;;;;4988161;28;20199;-62
2022/05/27 05:34:12;;;;;;;3.83;1.67;;;12.90;99.90;;;;;;4992332;28;20212;-62
2022/05/27 05:36:39;;;;;;;6.53;1.77;;;;;;;;;;4994350;28;20194;-62
2022/05/27 05:39:07;;;;;;;7.30;1.85;;;13.10;99.90;;;;;;5000141;28;20199;-62
2022/05/27 05:41:36;;;;;;;10.15;2.10;;;12.90;99.90;;;;;;4996780;28;20216;-62
2022/05/27 05:44:04;;;;;;;6.72;1.85;;;13.10;99.90;;;;;;5013468;28;20202;-62
2022/05/27 05:46:35;;;;;;;7.72;1.75;;;13.00;99.90;;;;;;5003213;28;20198;-62
2022/05/27 05:49:02;;;;;;;8.50;1.40;;;12.90;99.90;;;;;;5010473;28;20232;-62
2022/05/27 05:51:29;;;;;;;9.38;2.08;;;13.00;99.90;;;;;;4996943;28;20578;-62
2022/05/27 05:53:55;;;;;;;7.97;1.60;;;13.40;99.90;;;;;;5014674;28;20820;-62
2022/05/27 05:56:22;;;;;;;4.35;1.30;;;13.00;99.90;;;;;;4998144;28;21076;-62
2022/05/27 05:58:50;;;;;;;9.07;1.95;;;13.00;99.90;;;;;;5001442;28;20205;-62
2022/05/27 06:01:18;;;;;;;9.13;2.00;;;12.80;99.90;;;;;;5001145;28;20210;-62
2022/05/27 06:03:46;;;;;;;9.75;1.58;;;13.00;99.90;;;;;;5009194;28;20202;-62
2022/05/27 06:06:13;;;;;;;7.28;1.60;;;12.90;99.90;;;;;;5000053;28;20202;-62
2022/05/27 06:08:40;;;;;;;5.45;1.60;;;13.00;99.90;;;;;;5004778;28;20230;-62
2022/05/27 06:11:08;;;;;;;5.45;1.63;;;12.80;99.90;;;;;;4999648;28;20224;-62
2022/05/27 06:13:35;;;;;;;11.15;1.83;;;12.80;99.90;;;;;;4998061;28;20202;-62
2022/05/27 06:16:03;;;;;;;11.02;2.67;;;13.00;99.90;;;;;;5010070;28;20203;-62
2022/05/27 06:18:30;;;;;;;6.38;1.50;;;13.30;99.90;;;;;;5004162;28;20214;-62
2022/05/27 06:20:58;;;;;;;8.38;2.10;;;13.30;99.90;;;;;;5013452;28;20198;-61
2022/05/27 06:23:28;;;;;;;6.53;1.90;;;11.50;99.90;;;;;;4990079;28;21081;-62
2022/05/27 06:25:55;;;;;;;8.48;1.95;;;13.40;99.90;;;;;;4998871;28;20245;-63
2022/05/27 06:36:37;;;;;;;10.27;2.10;;;13.40;99.90;;;;;;5011317;28;20242;-62
2022/05/27 06:39:04;;;;;;;7.53;1.80;;;13.50;99.90;;;;;;4989087;28;20206;-62
2022/05/27 06:41:31;;;;;;;15.40;2.25;;;13.50;99.90;;;;;;5010610;28;20652;-62
2022/05/27 06:43:58;;;;;;;10.30;2.03;;;13.50;99.90;;;;;;4988757;28;20225;-62
2022/05/27 06:46:25;;;;;;;8.98;2.15;;;13.50;99.90;;;;;;5000429;28;20223;-62
2022/05/27 06:48:52;;;;;;;8.68;2.40;;;13.50;99.90;;;;;;4998890;28;20222;-62
2022/05/27 06:51:19;;;;;;;12.63;1.75;;;13.70;99.90;;;;;;5009772;28;20194;-62
2022/05/27 06:53:47;;;;;;;11.65;2.10;;;13.60;99.90;;;;;;4988917;28;20266;-63
2022/05/27 06:56:15;;;;;;;13.15;2.25;;;13.80;99.90;;;;;;5010647;28;20239;-63
2022/05/27 06:58:43;;;;;;;8.02;2.53;;;13.80;99.90;;;;;;4992875;28;20207;-63
2022/05/27 07:01:10;;;;;;;8.55;2.03;;;13.50;99.90;;;;;;4999034;28;20202;-63
2022/05/27 07:03:38;;;;;;;8.73;1.90;;;13.80;99.90;;;;;;5000173;28;20700;-63
2022/05/27 07:06:05;;;;;;;6.85;2.17;;;13.70;99.90;;;;;;5010148;28;20202;-62
2022/05/27 07:08:32;;;;;;;8.00;2.13;;;13.60;99.90;;;;;;5001076;28;20601;-62
2022/05/27 07:11:01;;;;;;;7.50;1.80;;;13.80;99.90;;;;;;4980311;28;20222;-63
2022/05/27 07:13:28;;;;;;;9.45;2.20;;;13.70;99.90;;;;;;4987102;28;20198;-63
2022/05/27 07:15:55;;;;;;;5.50;1.77;;;13.90;99.90;;;;;;4996257;28;20245;-62
2022/05/27 07:18:22;;;;;;;11.48;2.10;;;13.90;99.90;;;;;;5004356;28;20206;-63
2022/05/27 07:20:49;;;;;;;6.18;1.98;;;14.00;99.90;;;;;;5001029;28;20651;-63
2022/05/27 07:23:17;;;;;;;7.95;2.42;;;14.00;99.90;;;;;;5006392;28;20209;-62
2022/05/27 07:25:44;;;;;;;11.15;2.03;;;14.00;99.90;;;;;;4990361;28;21047;-63
2022/05/27 07:28:13;;;;;;;8.68;2.03;;;14.10;99.90;;;;;;5010132;28;20230;-62
2022/05/27 07:30:40;;;;;;;7.50;2.33;;;13.90;99.90;;;;;;4977192;28;20210;-63
2022/05/27 07:33:07;;;;;;;14.52;2.53;;;14.20;99.90;;;;;;5004593;28;20226;-62
2022/05/27 07:35:34;;;;;;;14.05;2.10;;;14.20;99.90;;;;;;4988982;28;20222;-62
2022/05/27 07:38:01;;;;;;;11.52;2.42;;;13.90;99.90;;;;;;5002946;28;20222;-63
2022/05/27 07:40:28;;;;;;;10.05;2.67;;;13.90;99.90;;;;;;4984099;28;20584;-62
2022/05/27 07:42:55;;;;;;;12.95;2.60;;;13.90;99.90;;;;;;4996438;28;20229;-63
2022/05/27 07:45:27;;;;;;;15.68;2.75;;;14.10;99.90;;;;;;4988912;28;20978;-62
2022/05/27 07:47:54;;;;;;;9.40;2.53;;;14.00;99.90;;;;;;4992624;28;20203;-63
2022/05/27 07:50:22;;;;;;;8.07;2.53;;;14.20;99.90;;;;;;4993533;28;23358;-62
2022/05/27 07:52:49;;;;;;;11.13;2.53;;;14.20;99.90;;;;;;5005425;28;20225;-63
2022/05/27 07:55:17;;;;;;;10.88;2.97;;;14.00;99.90;;;;;;4983071;28;23437;-63
2022/05/27 07:57:46;;;;;;;10.20;2.58;;;13.80;99.90;;;;;;5007102;28;20202;-62
2022/05/27 08:00:16;;;;;;;6.50;2.63;;;13.60;99.90;;;;;;4990433;28;20302;-63
2022/05/27 08:02:44;;;;;;;10.30;2.47;;;13.60;99.90;;;;;;4997602;28;20224;-62
2022/05/27 08:05:18;;;;;;;9.77;2.88;;;13.60;99.90;;;;;;5004241;28;20252;-62
2022/05/27 08:07:46;;;;;;;6.30;2.17;;;13.70;99.90;;;;;;5008013;28;20194;-61
2022/05/27 08:10:16;;;;;;;9.50;2.90;;;14.00;99.90;;;;;;4985495;28;20245;-63
2022/05/27 08:12:44;;;;;;;10.48;2.50;;;14.10;99.90;;;;;;5006574;28;20221;-63
2022/05/27 08:15:12;;;;;;;9.30;2.35;;;14.10;99.90;;;;;;4997005;28;20206;-62
2022/05/27 08:17:40;;;;;;;15.15;3.05;;;14.20;99.90;;;;;;4988702;28;20617;-61
2022/05/27 08:20:12;;;;;;;11.07;2.17;;;14.30;99.90;;;;;;5003860;28;20222;-61
2022/05/27 08:22:39;;;;;;;15.05;2.60;;;14.30;99.90;;;;;;4991519;28;20963;-62
2022/05/27 08:25:07;;;;;;;15.63;3.08;;;14.40;99.90;;;;;;4996281;28;20225;-63
2022/05/27 08:27:35;;;;;;;14.20;2.30;;;14.30;99.90;;;;;;4996604;23;20243;-62
2022/05/27 08:30:02;;;;;;;8.40;2.03;;;14.30;99.90;;;;;;4999316;23;20242;-63
2022/05/27 08:32:30;;;;;;;12.68;2.22;;;14.40;99.90;;;;;;4988310;28;20833;-63
2022/05/27 08:40:39;;;;;;;13.43;2.25;;;14.30;99.90;;;;;;5004728;28;20424;-63
2022/05/27 08:43:18;;;;;;;6.15;2.47;;;14.60;99.90;;;;;;5004885;28;20584;-62
2022/05/27 08:45:54;;;;;;;5.78;2.20;;;14.70;99.90;;;;;;5014289;28;20194;-62
2022/05/27 08:48:22;;;;;;;8.70;1.88;;;14.60;99.90;;;;;;4997270;28;20224;-62
2022/05/27 08:50:53;;;;;;;9.20;2.17;;;14.50;99.90;;;;;;5015873;28;20966;-62
2022/05/27 08:53:32;;;;;;;11.98;2.60;;;14.40;99.90;;;;;;5006328;28;20206;-62
2022/05/27 09:01:38;;;;;;;9.15;2.05;;;14.20;99.90;;;;;;5011382;28;20205;-62
2022/05/27 09:04:10;;;;;;;4.35;1.40;;;14.20;99.90;;;;;;4995883;28;20225;-62
2022/05/27 09:06:40;;;;;;;5.57;2.08;;;14.40;99.90;;;;;;5015992;28;20595;-62
2022/05/27 09:09:20;;;;;;;13.30;1.95;;;14.70;99.90;;;;;;4989882;28;20238;-62
2022/05/27 09:12:14;;;;;;;8.50;2.10;;;14.80;99.90;;;;;;4993540;28;20732;-62
2022/05/27 09:14:46;;;;;;;11.00;2.58;;;14.80;99.90;;;;;;4992077;28;20210;-62
2022/05/27 09:17:21;;;;;;;12.73;5.28;;;14.80;99.90;;;;;;5000753;28;21033;-63
2022/05/27 09:19:55;;;;;;;7.72;2.17;;;14.80;99.90;;;;;;4993575;28;20698;-62
2022/05/27 09:22:35;;;;;;;9.77;2.97;;;14.80;99.90;;;;;;4999274;28;20201;-62
2022/05/27 09:25:16;;;;;;;7.15;2.47;;;14.40;99.90;;;;;;5010731;28;20214;-62
2022/05/27 09:27:53;;;;;;;9.70;2.30;;;14.30;99.90;;;;;;5000589;28;20237;-62
2022/05/27 09:30:20;;;;;;;13.93;2.53;;;14.40;99.90;;;;;;5002181;28;20279;-62
2022/05/27 09:32:52;;;;;;;5.18;2.40;;;17.80;99.90;;;;;;4997877;28;20312;-62
2022/05/27 09:35:22;;;;;;;10.32;3.20;;;14.60;99.90;;;;;;5005094;28;20468;-62
2022/05/27 09:37:53;;;;;;;8.55;2.05;;;14.60;99.90;;;;;;5021019;28;20197;-62
2022/05/27 09:40:29;;;;;;;12.02;2.45;;;14.60;99.90;;;;;;5017687;28;20213;-62
2022/05/27 09:43:01;;;;;;;13.70;3.00;;;14.50;99.90;;;;;;5003026;28;20267;-62
2022/05/27 09:45:29;;;;;;;9.48;2.33;;;14.50;99.90;;;;;;5018560;28;20572;-62
2022/05/27 09:47:59;;;;;;;8.95;1.92;;;14.70;99.90;;;;;;5017290;28;20245;-62
2022/05/27 09:50:28;;;;;;;9.65;2.35;;;14.60;99.90;;;;;;5002829;28;20690;-62
2022/05/27 09:52:58;;;;;;;15.05;2.42;;;14.60;99.90;;;;;;5014817;28;20198;-62
2022/05/27 09:55:32;;;;;;;6.85;2.22;;;14.80;99.90;;;;;;5022668;28;20232;-62
2022/05/27 09:58:01;;;;;;;8.15;1.85;;;14.70;99.90;;;;;;5007420;28;20193;-62
2022/05/27 10:00:41;;;;;;;11.70;2.80;;;14.80;99.90;;;;;;5022775;28;20202;-62
2022/05/27 10:03:22;;;;;;;11.32;2.20;;;14.80;99.90;;;;;;5010680;28;20296;-62
2022/05/27 10:05:54;;;;;;;5.80;2.33;;;14.80;99.90;;;;;;5007429;28;20206;-62
2022/05/27 10:08:31;;;;;;;6.80;2.22;;;14.70;99.90;;;;;;5017354;28;20198;-63
2022/05/27 10:11:15;;;;;;;9.40;2.50;;;14.50;99.90;;;;;;5022899;28;20222;-62
2022/05/27 10:13:43;;;;;;;7.07;2.03;;;14.40;99.90;;;;;;5011645;28;20198;-62
2022/05/27 10:16:12;;;;;;;10.77;2.42;;;14.10;99.90;;;;;;5027262;28;20201;-62
2022/05/27 10:18:40;;;;;;;7.82;2.65;;;14.10;99.90;;;;;;5020684;28;20330;-62
2022/05/27 10:21:13;;;;;;;10.82;2.85;;;14.10;99.90;;;;;;4992579;28;20221;-62
2022/05/27 10:23:42;;;;;;;14.55;2.38;;;14.10;99.90;;;;;;5015124;28;20209;-62
2022/05/27 10:26:29;;;;;;;10.30;2.42;;;14.40;99.90;;;;;;5012676;28;20217;-62
2022/05/27 10:29:00;;;;;;;7.15;1.85;;;14.70;99.90;;;;;;5002070;28;20214;-62
2022/05/27 10:31:27;;;;;;;10.23;2.58;;;14.80;99.90;;;;;;5022131;28;20657;-62
2022/05/27 10:33:54;;;;;;;8.73;2.50;;;15.10;99.90;;;;;;5016195;28;21925;-63
2022/05/27 10:36:45;;;;;;;12.65;2.70;;;15.40;99.90;;;;;;5004180;28;20226;-62
2022/05/27 10:39:18;;;;;;;7.70;2.30;;;15.40;99.90;;;;;;5019931;28;20202;-62
2022/05/27 10:42:09;;;;;;;6.82;1.85;;;15.90;99.90;;;;;;5007899;28;20190;-62
2022/05/27 10:44:49;;;;;;;7.38;1.95;;;15.10;99.90;;;;;;5013406;28;20201;-62
2022/05/27 10:47:25;;;;;;;8.95;2.60;;;15.10;99.90;;;;;;5020465;28;20206;-62
2022/05/27 10:50:07;;;;;;;6.18;1.90;;;14.60;99.90;;;;;;4993129;28;20230;-62
2022/05/27 10:52:58;;;;;;;11.45;2.72;;;14.30;99.90;;;;;;5020309;28;20580;-62
2022/05/27 10:55:35;;;;;;;8.00;2.08;;;13.40;99.90;;;;;;5013735;28;20210;-63
2022/05/27 11:04:32;;;;;;;12.40;3.17;;;13.90;99.90;;;;;;5013301;28;20230;-62
2022/05/27 11:07:18;;;;;;;7.03;2.10;;;14.00;99.90;;;;;;4997326;28;20293;-62
2022/05/27 11:09:56;;;;;;;8.68;2.60;;;14.10;99.90;;;;;;5023542;28;20224;-62
2022/05/27 11:15:32;;;;;;;10.68;3.05;;;14.20;99.90;;;;;;5024012;28;20580;-62
2022/05/27 11:18:10;;;;;;;7.88;2.30;;;14.10;99.90;;;;;;5010184;28;20206;-62
2022/05/27 11:20:56;;;;;;;10.00;2.28;;;13.70;99.90;;;;;;5019818;28;20790;-62
2022/05/27 11:23:53;;;;;;;8.07;2.20;;;13.70;99.90;;;;;;5001574;28;20215;-62
2022/05/27 11:26:29;;;;;;;10.90;2.10;;;14.00;99.90;;;;;;5022085;28;20198;-62
2022/05/27 11:29:17;;;;;;;7.72;2.17;;;14.20;99.90;;;;;;5003336;28;20552;-62
2022/05/27 11:31:54;;;;;;;7.30;2.42;;;14.00;99.90;;;;;;5017242;28;20232;-62
2022/05/27 11:34:26;;;;;;;10.65;2.13;;;15.40;99.90;;;;;;5015317;28;20213;-62
2022/05/27 11:37:25;;;;;;;8.68;3.80;;;11.10;99.90;;;;;;5011690;28;20229;-62
2022/05/27 11:40:18;;;;;;;11.27;2.47;;;14.70;99.90;;;;;;5023544;28;20576;-62
2022/05/27 11:43:21;;;;;;;8.85;2.15;;;14.60;99.90;;;;;;5019594;28;20197;-62
2022/05/27 11:46:00;;;;;;;9.38;2.10;;;14.40;99.90;;;;;;5024438;28;20237;-62
2022/05/27 11:48:40;;;;;;;8.18;2.70;;;14.60;99.90;;;;;;5009463;28;21078;-62
2022/05/27 11:51:20;;;;;;;10.27;2.58;;;14.70;99.90;;;;;;5024274;28;20236;-62
2022/05/27 11:54:09;;;;;;;11.25;2.28;;;14.60;99.90;;;;;;5004628;28;20209;-62
2022/05/27 11:56:48;;;;;;;7.85;2.72;;;14.80;99.90;;;;;;5019209;28;20277;-62
2022/05/27 11:59:24;;;;;;;6.95;2.22;;;14.60;99.90;;;;;;5015725;28;20584;-62
2022/05/27 12:01:55;;;;;;;12.50;2.53;;;14.60;99.90;;;;;;5013868;28;20583;-62
2022/05/27 12:04:33;;;;;;;8.88;2.20;;;14.40;99.90;;;;;;5008834;28;20761;-62
2022/05/27 12:07:07;;;;;;;13.73;2.50;;;14.50;99.90;;;;;;5014640;28;20205;-62
2022/05/27 12:09:40;;;;;;;8.00;2.50;;;14.70;99.90;;;;;;5003940;28;20229;-62
2022/05/27 12:12:11;;;;;;;18.88;2.08;;;14.80;99.90;;;;;;5016169;28;20613;-62
2022/05/27 12:14:41;;;;;;;6.97;1.73;;;14.70;99.90;;;;;;5017382;28;20198;-61
2022/05/27 12:17:13;;;;;;;7.78;2.45;;;14.60;99.90;;;;;;5009534;28;20202;-62
2022/05/27 12:19:45;;;;;;;4.80;1.70;;;14.70;99.90;;;;;;5008564;28;20213;-62
2022/05/27 12:22:17;;;;;;;6.53;2.28;;;14.60;99.90;;;;;;5016353;28;20198;-62
2022/05/27 12:24:47;;;;;;;7.38;2.03;;;14.80;99.90;;;;;;5000087;28;20576;-62
2022/05/27 12:27:18;;;;;;;9.30;2.33;;;14.80;99.90;;;;;;5011094;28;20305;-62
2022/05/27 12:29:48;;;;;;;9.40;2.60;;;14.90;99.90;;;;;;5016840;28;20327;-62
2022/05/27 12:32:16;;;;;;;9.93;2.60;;;14.70;99.90;;;;;;4989762;28;22806;-62
2022/05/27 12:34:48;;;;;;;5.65;2.13;;;15.00;99.90;;;;;;5002912;28;20979;-62
2022/05/27 12:37:22;;;;;;;5.72;2.17;;;15.00;99.90;;;;;;5015751;28;20198;-62
2022/05/27 12:39:51;;;;;;;8.13;2.20;;;15.20;99.90;;;;;;4998437;28;20621;-62
2022/05/27 12:42:21;;;;;;;5.85;2.10;;;15.20;99.90;;;;;;5011412;28;20284;-62
2022/05/27 12:44:49;;;;;;;5.15;1.90;;;15.10;99.90;;;;;;5019487;28;20198;-62
2022/05/27 12:47:19;;;;;;;9.48;2.03;;;15.00;99.90;;;;;;5004762;28;20697;-62
2022/05/27 12:49:50;;;;;;;10.25;2.15;;;14.90;99.90;;;;;;5015497;28;20251;-62
2022/05/27 12:52:54;;;;;;;9.07;1.75;;;15.20;99.90;;;;;;5015937;28;20202;-62
2022/05/27 13:01:23;;;;;;;9.57;2.00;;;15.10;99.90;;;;;;5014561;28;20329;-62
2022/05/27 13:03:52;;;;;;;7.18;2.65;;;15.40;99.90;;;;;;5001393;28;20206;-62
2022/05/27 13:06:39;;;;;;;7.35;1.95;;;15.40;99.90;;;;;;5007649;28;20252;-62
2022/05/27 13:09:09;;;;;;;12.45;2.30;;;15.10;99.90;;;;;;5015724;28;20312;-62
2022/05/27 13:11:46;;;;;;;5.10;1.92;;;15.00;99.90;;;;;;4995394;28;20218;-62
2022/05/27 13:14:25;;;;;;;10.23;2.25;;;15.00;99.90;;;;;;5013865;28;20660;-62
2022/05/27 13:17:04;;;;;;;5.25;1.83;;;15.00;99.90;;;;;;5013925;28;20296;-62
2022/05/27 13:19:36;;;;;;;6.07;1.70;;;14.80;99.90;;;;;;5009166;28;20917;-62
2022/05/27 13:22:11;;;;;;;9.20;1.73;;;14.90;99.90;;;;;;5002352;28;20198;-62
2022/05/27 13:24:40;;;;;;;9.90;1.80;;;14.90;99.90;;;;;;5017092;28;20300;-62
2022/05/27 13:27:22;;;;;;;6.60;1.65;;;14.70;99.90;;;;;;5000739;28;20217;-62
2022/05/27 13:30:08;;;;;;;3.10;1.30;;;14.60;99.90;;;;;;5017770;28;20234;-62
2022/05/27 13:32:52;;;;;;;5.38;1.88;;;14.40;99.90;;;;;;5013605;28;20707;-62
2022/05/27 13:35:20;;;;;;;9.02;2.47;;;14.20;99.90;;;;;;5022396;28;20701;-62
2022/05/27 13:37:52;;;;;;;8.88;3.10;;;13.60;99.90;;;;;;5003910;28;20209;-62
2022/05/27 13:40:25;;;;;;;8.90;1.80;;;13.50;99.90;;;;;;5018444;28;20230;-62
2022/05/27 13:42:54;;;;;;;6.97;1.77;;;13.10;99.90;;;;;;4997703;28;20198;-62
2022/05/27 13:45:29;;;;;;;7.03;1.90;;;12.50;99.90;;;;;;5021777;28;20226;-62